createdAt,value
2019-03-28T00:03:27.288Z,15.03
2019-03-28T00:08:36.561Z,12.65
2019-03-28T00:13:45.594Z,11.49
2019-03-28T00:18:57.335Z,12.65
2019-03-28T00:24:03.382Z,10.77
2019-03-28T00:29:12.470Z,11.82
2019-03-28T00:34:21.447Z,13.57
2019-03-28T00:39:30.752Z,17.14
2019-03-28T00:44:39.758Z,13.50
2019-03-28T00:49:48.832Z,13.52
2019-03-28T00:54:57.848Z,15.24
2019-03-28T01:00:06.932Z,13.10
2019-03-28T01:05:15.945Z,15.00
2019-03-28T01:10:25.100Z,16.01
2019-03-28T01:15:34.161Z,17.48
2019-03-28T01:20:43.208Z,14.63
2019-03-28T01:25:52.706Z,14.87
2019-03-28T01:31:00.861Z,13.58
2019-03-28T01:36:09.921Z,17.24
2019-03-28T01:41:18.924Z,16.42
2019-03-28T01:46:27.978Z,14.28
2019-03-28T01:51:37.112Z,14.35
2019-03-28T01:56:46.174Z,12.86
2019-03-28T02:01:55.356Z,11.98
2019-03-28T02:07:04.397Z,18.33
2019-03-28T02:12:13.503Z,19.86
2019-03-28T02:17:22.577Z,12.89
2019-03-28T02:22:31.578Z,11.87
2019-03-28T02:27:40.636Z,12.36
2019-03-28T02:32:49.793Z,13.33
2019-03-28T02:37:58.834Z,14.77
2019-03-28T02:43:07.989Z,14.70
2019-03-28T02:48:17.033Z,11.60
2019-03-28T02:53:26.128Z,12.58
2019-03-28T02:58:35.153Z,18.09
2019-03-28T03:03:44.277Z,14.18
2019-03-28T03:08:53.324Z,14.88
2019-03-28T03:14:02.394Z,15.22
2019-03-28T03:19:11.450Z,14.05
2019-03-28T03:24:20.565Z,12.14
2019-03-28T03:29:29.616Z,15.81
2019-03-28T03:34:38.702Z,14.63
2019-03-28T03:39:47.764Z,13.30
2019-03-28T03:44:56.935Z,16.03
2019-03-28T03:50:05.994Z,15.60
2019-03-28T03:55:15.074Z,15.84
2019-03-28T04:00:24.061Z,16.85
2019-03-28T04:05:33.095Z,18.90
2019-03-28T04:10:42.087Z,29.71
2019-03-28T04:15:51.093Z,18.91
2019-03-28T04:21:00.089Z,23.44
2019-03-28T04:26:09.080Z,17.39
2019-03-28T04:31:18.127Z,31.19
2019-03-28T04:36:27.137Z,24.53
2019-03-28T04:41:36.144Z,24.79
2019-03-28T04:46:45.380Z,23.04
2019-03-28T04:51:53.726Z,23.40
2019-03-28T04:57:02.818Z,19.32
2019-03-28T05:02:11.843Z,20.91
2019-03-28T05:07:21.197Z,17.53
2019-03-28T05:12:30.215Z,18.45
2019-03-28T05:17:39.353Z,13.66
2019-03-28T05:22:48.490Z,24.75
2019-03-28T05:27:56.422Z,24.31
2019-03-28T05:33:05.493Z,29.43
2019-03-28T05:38:14.560Z,17.75
2019-03-28T05:43:23.548Z,17.33
2019-03-28T05:48:32.612Z,25.15
2019-03-28T05:53:43.904Z,18.12
2019-03-28T05:58:50.204Z,32.97
2019-03-28T06:03:59.220Z,17.73
2019-03-28T06:09:08.312Z,16.66
2019-03-28T06:14:17.363Z,14.81
2019-03-28T06:19:26.445Z,21.99
2019-03-28T06:24:35.448Z,21.17
2019-03-28T06:29:44.576Z,16.13
2019-03-28T06:34:53.576Z,26.75
2019-03-28T06:40:02.685Z,21.52
2019-03-28T06:45:11.728Z,21.40
2019-03-28T06:50:20.845Z,15.76
2019-03-28T06:55:29.890Z,23.52
2019-03-28T07:00:38.950Z,18.26
2019-03-28T07:05:48.397Z,26.54
2019-03-28T07:10:58.049Z,24.77
2019-03-28T07:16:05.164Z,21.47
2019-03-28T07:21:14.253Z,18.17
2019-03-28T07:26:23.300Z,22.38
2019-03-28T07:31:35.373Z,13.19
2019-03-28T07:36:41.012Z,20.30
2019-03-28T07:41:50.672Z,24.82
2019-03-28T07:46:59.720Z,21.22
2019-03-28T07:52:08.936Z,19.53
2019-03-28T07:57:18.000Z,16.82
2019-03-28T08:02:27.082Z,19.83
2019-03-28T08:07:44.258Z,19.77
2019-03-28T08:12:43.335Z,22.04
2019-03-28T08:17:52.353Z,22.94
2019-03-28T08:23:01.709Z,22.92
2019-03-28T08:28:10.764Z,17.26
2019-03-28T08:33:20.112Z,9.58
2019-03-28T08:38:29.189Z,10.90
2019-03-28T08:43:38.320Z,16.19
2019-03-28T08:48:47.371Z,12.87
2019-03-28T08:53:56.815Z,9.35
2019-03-28T08:59:05.888Z,5.56
2019-03-28T09:04:14.984Z,9.78
2019-03-28T09:09:24.032Z,10.44
2019-03-28T09:14:33.055Z,9.14
2019-03-28T09:19:42.092Z,9.46
2019-03-28T09:24:51.225Z,8.25
2019-03-28T09:30:01.736Z,8.58
2019-03-28T09:35:00.877Z,9.04
2019-03-28T09:40:09.932Z,12.69
2019-03-28T09:45:19.065Z,9.02
2019-03-28T09:50:28.093Z,7.02
2019-03-28T09:55:37.184Z,7.88
2019-03-28T10:00:46.253Z,6.98
2019-03-28T10:05:55.632Z,6.10
2019-03-28T10:11:04.681Z,4.47
2019-03-28T10:16:13.768Z,8.77
2019-03-28T10:21:22.844Z,4.17
2019-03-28T10:26:32.220Z,4.51
2019-03-28T10:31:41.530Z,6.28
2019-03-28T10:36:50.472Z,6.20
2019-03-28T10:41:59.528Z,4.86
2019-03-28T10:47:08.630Z,3.44
2019-03-28T10:52:18.368Z,5.00
2019-03-28T10:57:30.359Z,4.33
2019-03-28T11:02:36.044Z,5.77
2019-03-28T11:07:45.172Z,5.40
2019-03-28T11:12:58.692Z,5.89
2019-03-28T11:18:05.597Z,6.95
2019-03-28T11:23:04.718Z,8.26
2019-03-28T11:28:13.921Z,6.42
2019-03-28T11:33:22.945Z,5.65
2019-03-28T11:38:32.248Z,4.58
2019-03-28T11:43:41.307Z,6.76
2019-03-28T11:48:50.388Z,5.48
2019-03-28T11:53:59.446Z,4.46
2019-03-28T11:59:08.529Z,7.90
2019-03-28T12:04:17.586Z,9.66
2019-03-28T12:09:26.764Z,8.05
2019-03-28T12:14:35.841Z,7.42
2019-03-28T12:19:44.988Z,10.80
2019-03-28T12:24:54.680Z,7.10
2019-03-28T12:30:03.772Z,10.19
2019-03-28T12:35:12.824Z,8.59
2019-03-28T12:40:21.928Z,6.62
2019-03-28T12:45:33.376Z,9.94
2019-03-28T12:50:32.458Z,7.90
2019-03-28T12:55:41.500Z,8.82
2019-03-28T13:00:50.638Z,9.56
2019-03-28T13:05:59.632Z,7.71
2019-03-28T13:11:08.749Z,7.17
2019-03-28T13:16:17.824Z,8.29
2019-03-28T13:21:26.896Z,9.97
2019-03-28T13:26:35.944Z,8.73
2019-03-28T13:31:44.979Z,9.44
2019-03-28T13:36:56.438Z,11.02
2019-03-28T13:41:55.442Z,10.68
2019-03-28T13:47:04.415Z,12.71
2019-03-28T13:52:16.422Z,10.48
2019-03-28T13:57:15.686Z,9.91
2019-03-28T14:02:24.700Z,9.69
2019-03-28T14:07:33.663Z,7.86
2019-03-28T14:12:42.642Z,10.88
2019-03-28T14:17:51.595Z,10.57
2019-03-28T14:23:00.602Z,11.19
2019-03-28T14:28:09.575Z,9.76
2019-03-28T14:33:20.946Z,7.80
2019-03-28T14:38:19.879Z,8.00
2019-03-28T14:43:28.843Z,9.28
2019-03-28T14:48:37.947Z,8.05
2019-03-28T14:53:46.774Z,7.36
2019-03-28T14:58:55.882Z,8.36
2019-03-28T15:04:04.921Z,9.27
2019-03-28T15:09:13.902Z,8.50
2019-03-28T15:14:22.927Z,7.83
2019-03-28T15:19:31.926Z,9.03
2019-03-28T15:24:40.906Z,8.30
2019-03-28T15:29:49.906Z,10.37
2019-03-28T15:34:58.910Z,7.94
2019-03-28T15:40:07.917Z,7.79
2019-03-28T15:45:16.957Z,7.63
2019-03-28T15:50:25.970Z,10.25
2019-03-28T15:55:34.962Z,11.86
2019-03-28T16:00:44.022Z,12.96
2019-03-28T16:05:58.469Z,11.92
2019-03-28T16:11:01.592Z,16.83
2019-03-28T16:16:10.573Z,18.43
2019-03-28T16:21:19.600Z,15.57
2019-03-28T16:26:28.529Z,11.49
2019-03-28T16:31:37.455Z,10.40
2019-03-28T16:36:46.471Z,12.23
2019-03-28T16:41:55.426Z,20.92
2019-03-28T16:47:04.415Z,12.22
2019-03-28T16:52:13.370Z,16.04
2019-03-28T16:57:22.326Z,15.08
2019-03-28T17:02:31.266Z,16.69
2019-03-28T17:07:40.310Z,16.26
2019-03-28T17:12:49.242Z,18.71
2019-03-28T17:17:58.307Z,16.07
2019-03-28T17:23:07.263Z,16.53
2019-03-28T17:28:16.270Z,14.63
2019-03-28T17:33:25.226Z,15.88
2019-03-28T17:38:34.337Z,16.29
2019-03-28T17:43:43.317Z,15.95
2019-03-28T17:48:52.346Z,22.04
2019-03-28T17:54:01.298Z,18.01
2019-03-28T17:59:10.323Z,15.64
2019-03-28T18:04:23.124Z,17.21
2019-03-28T18:09:27.951Z,14.77
2019-03-28T18:14:36.946Z,18.19
2019-03-28T18:19:52.503Z,19.30
2019-03-28T18:24:51.519Z,19.61
2019-03-28T18:30:00.554Z,14.64
2019-03-28T18:35:09.520Z,16.86
2019-03-28T18:40:18.574Z,17.76
2019-03-28T18:45:27.575Z,26.08
2019-03-28T18:50:36.626Z,18.31
2019-03-28T18:55:45.618Z,20.26
2019-03-28T19:00:54.695Z,27.48
2019-03-28T19:06:03.690Z,16.80
2019-03-28T19:11:12.770Z,14.76
2019-03-28T19:16:21.965Z,19.67
2019-03-28T19:21:30.765Z,20.73
2019-03-28T19:26:39.754Z,19.92
2019-03-28T19:31:48.827Z,21.48
2019-03-28T19:36:57.825Z,21.04
2019-03-28T19:42:06.926Z,19.15
2019-03-28T19:47:15.919Z,18.27
2019-03-28T19:52:25.881Z,19.00
2019-03-28T19:57:33.443Z,16.81
2019-03-28T20:02:42.442Z,23.89
2019-03-28T20:07:51.442Z,8.23
2019-03-28T20:13:00.751Z,9.39
2019-03-28T20:18:09.811Z,8.47
2019-03-28T20:23:18.786Z,17.34
2019-03-28T20:28:27.778Z,16.78
2019-03-28T20:33:37.868Z,16.12
2019-03-28T20:38:48.606Z,15.28
2019-03-28T20:43:54.495Z,22.23
2019-03-28T20:49:03.498Z,13.94
2019-03-28T20:54:12.546Z,24.16
2019-03-28T20:59:21.558Z,22.61
2019-03-28T21:04:31.810Z,14.45
2019-03-28T21:09:39.105Z,15.07
2019-03-28T21:14:48.148Z,30.87
2019-03-28T21:19:57.146Z,31.76
2019-03-28T21:25:06.170Z,17.45
2019-03-28T21:30:18.313Z,12.42
2019-03-28T21:35:23.722Z,7.97
2019-03-28T21:40:32.710Z,9.03
2019-03-28T21:45:41.774Z,9.60
2019-03-28T21:50:50.757Z,7.08
2019-03-28T21:55:59.823Z,10.62
2019-03-28T22:01:08.826Z,20.50
2019-03-28T22:06:17.854Z,21.69
2019-03-28T22:11:26.817Z,20.92
2019-03-28T22:16:35.828Z,22.05
2019-03-28T22:21:44.829Z,17.83
2019-03-28T22:26:53.770Z,14.05
2019-03-28T22:32:02.782Z,17.77
2019-03-28T22:37:11.782Z,17.34
2019-03-28T22:42:20.836Z,5.54
2019-03-28T22:47:29.766Z,4.05
2019-03-28T22:52:38.786Z,6.45
2019-03-28T22:57:47.774Z,4.07
2019-03-28T23:02:56.843Z,6.23
2019-03-28T23:08:06.896Z,7.23
2019-03-28T23:13:14.346Z,13.10
2019-03-28T23:18:23.306Z,9.79
2019-03-28T23:23:32.282Z,12.32
2019-03-28T23:28:41.218Z,15.71
2019-03-28T23:33:50.255Z,6.75
2019-03-28T23:38:59.190Z,5.55
2019-03-28T23:44:08.206Z,6.88
2019-03-28T23:49:17.141Z,7.59
2019-03-28T23:54:26.904Z,8.12
2019-03-28T23:59:34.673Z,7.58
